Time;durP1;ratioP1;P1;durP2;ratioP2;P2;SDS_P1;SDS_P2;PMS_P1;PMS_P2;Temp;Humidity;BMP_temperature;BMP_pressure;BME280_temperature;BME280_humidity;BME280_pressure;Samples;Min_cycle;Max_cycle;Signal;HPM_P1;HPM_P2
2020/12/14 00:01:07;;;;;;;8.05;2.95;;;7.60;74.60;;;;;;4994897;28;20060;-87
2020/12/14 00:03:33;;;;;;;9.33;2.67;;;7.70;74.70;;;;;;4996120;28;20479;-88
2020/12/14 00:06:00;;;;;;;4.53;2.17;;;7.60;74.70;;;;;;5013849;28;20026;-86
2020/12/14 00:08:25;;;;;;;10.10;3.27;;;7.70;74.70;;;;;;4996218;28;20033;-87
2020/12/14 00:10:51;;;;;;;6.53;2.63;;;7.70;74.50;;;;;;4996114;28;20033;-86
2020/12/14 00:13:20;;;;;;;7.93;2.43;;;7.70;74.30;;;;;;4995722;28;20038;-87
2020/12/14 00:15:45;;;;;;;7.17;2.93;;;7.70;74.10;;;;;;5014182;28;20053;-87
2020/12/14 00:18:13;;;;;;;5.97;2.23;;;7.70;74.40;;;;;;5013612;28;20030;-87
2020/12/14 00:20:39;;;;;;;6.40;2.53;;;7.70;74.10;;;;;;4996156;28;20018;-89
2020/12/14 00:23:04;;;;;;;6.40;2.47;;;7.70;74.20;;;;;;4996209;28;20041;-89
2020/12/14 00:25:33;;;;;;;9.27;2.57;;;7.80;74.20;;;;;;4996226;28;20478;-89
2020/12/14 00:28:01;;;;;;;4.80;2.20;;;7.70;74.10;;;;;;4995653;28;20429;-88
2020/12/14 00:30:27;;;;;;;5.30;2.22;;;7.70;74.20;;;;;;5005003;28;20207;-87
2020/12/14 00:32:53;;;;;;;5.97;2.17;;;7.70;74.10;;;;;;4997236;28;20064;-88
2020/12/14 00:35:45;;;;;;;6.93;2.83;;;7.70;74.00;;;;;;5013715;28;20061;-89
2020/12/14 00:38:15;;;;;;;9.23;2.63;;;7.70;74.20;;;;;;4997773;28;20026;-88
2020/12/14 00:40:41;;;;;;;5.70;2.03;;;7.70;74.00;;;;;;4980849;28;20387;-87
2020/12/14 00:43:06;;;;;;;7.10;2.17;;;7.80;74.40;;;;;;5013552;28;20057;-86
2020/12/14 00:45:32;;;;;;;8.93;2.10;;;7.70;73.80;;;;;;4995989;28;20418;-86
2020/12/14 00:47:58;;;;;;;7.40;2.07;;;7.80;74.00;;;;;;5012960;28;20037;-86
2020/12/14 00:50:23;;;;;;;6.27;2.07;;;7.90;74.00;;;;;;5011866;28;20030;-87
2020/12/14 00:52:51;;;;;;;7.20;2.20;;;7.90;73.90;;;;;;5012562;28;20415;-87
2020/12/14 00:55:17;;;;;;;6.90;2.20;;;7.90;73.60;;;;;;4995090;28;20026;-87
2020/12/14 00:57:44;;;;;;;10.97;2.27;;;7.80;73.40;;;;;;4994866;28;20075;-88
2020/12/14 01:00:09;;;;;;;5.73;2.20;;;7.80;73.40;;;;;;4994886;28;20058;-87
2020/12/14 01:02:35;;;;;;;4.27;1.80;;;7.80;73.40;;;;;;4994828;28;20057;-88
2020/12/14 01:05:03;;;;;;;8.13;1.70;;;7.80;73.20;;;;;;4995275;28;20532;-87
2020/12/14 01:07:31;;;;;;;6.18;1.90;;;7.80;74.10;;;;;;4994808;28;20022;-88
2020/12/14 01:10:00;;;;;;;6.23;1.80;;;7.80;73.60;;;;;;5012544;28;20034;-88
2020/12/14 01:12:29;;;;;;;5.45;2.22;;;7.80;73.20;;;;;;4994657;28;20489;-88
2020/12/14 01:15:03;;;;;;;7.28;2.35;;;7.80;73.30;;;;;;4995404;28;20084;-88
2020/12/14 01:17:29;;;;;;;6.47;2.00;;;7.90;73.30;;;;;;4994836;28;20064;-88
2020/12/14 01:19:55;;;;;;;7.50;1.73;;;7.80;73.50;;;;;;4994773;28;20030;-89
2020/12/14 01:22:20;;;;;;;6.03;1.63;;;7.80;73.40;;;;;;5011833;28;20034;-88
2020/12/14 01:24:49;;;;;;;6.00;1.90;;;7.80;73.80;;;;;;4994552;28;20428;-87
2020/12/14 01:27:15;;;;;;;10.00;3.75;;;7.80;73.60;;;;;;5012061;28;20422;-87
2020/12/14 01:29:40;;;;;;;6.93;1.90;;;7.80;73.40;;;;;;4994360;28;20053;-88
2020/12/14 01:32:06;;;;;;;7.10;1.87;;;7.80;73.50;;;;;;5012039;28;20037;-88
2020/12/14 01:34:36;;;;;;;7.10;1.87;;;7.80;73.60;;;;;;5012309;28;20084;-87
2020/12/14 01:37:02;;;;;;;5.27;1.80;;;7.80;73.90;;;;;;5011772;28;20057;-88
2020/12/14 01:39:27;;;;;;;5.17;2.20;;;7.90;73.90;;;;;;4994427;28;20028;-87
2020/12/14 01:41:53;;;;;;;6.73;1.90;;;7.90;73.30;;;;;;5011826;28;20030;-88
2020/12/14 01:44:19;;;;;;;7.03;2.30;;;7.80;73.50;;;;;;4994361;28;20450;-88
2020/12/14 01:46:45;;;;;;;6.47;1.90;;;7.90;73.60;;;;;;4994256;28;20113;-88
2020/12/14 01:49:12;;;;;;;4.83;1.53;;;7.90;73.70;;;;;;4994370;28;20064;-88
2020/12/14 01:51:39;;;;;;;6.07;1.70;;;7.80;73.10;;;;;;5012090;28;20666;-87
2020/12/14 01:54:34;;;;;;;5.13;1.70;;;7.90;73.40;;;;;;4994194;28;20030;-87
2020/12/14 01:57:01;;;;;;;5.43;1.70;;;7.90;73.30;;;;;;5011880;28;20026;-87
2020/12/14 01:59:29;;;;;;;5.77;1.93;;;7.90;73.50;;;;;;4993952;28;20102;-87
2020/12/14 02:01:55;;;;;;;5.88;1.88;;;7.80;73.10;;;;;;5011978;28;20021;-87
2020/12/14 02:04:21;;;;;;;4.47;1.63;;;7.90;73.50;;;;;;4994531;28;20049;-87
2020/12/14 02:06:46;;;;;;;5.97;1.80;;;7.90;73.50;;;;;;5011952;28;20214;-87
2020/12/14 02:09:12;;;;;;;6.90;1.80;;;7.80;73.30;;;;;;4994112;28;20030;-87
2020/12/14 02:11:38;;;;;;;8.57;1.70;;;7.80;73.30;;;;;;4994895;28;20136;-85
2020/12/14 02:14:06;;;;;;;4.67;1.67;;;7.90;73.30;;;;;;4997186;28;20026;-85
2020/12/14 02:16:35;;;;;;;9.65;1.88;;;7.80;73.40;;;;;;4994243;28;20076;-87
2020/12/14 02:19:01;;;;;;;5.97;1.25;;;7.90;73.50;;;;;;5011477;28;20057;-89
2020/12/14 02:21:26;;;;;;;5.53;1.63;;;7.80;73.50;;;;;;4993617;28;20046;-88
2020/12/14 02:23:52;;;;;;;8.13;2.00;;;7.90;73.50;;;;;;4993422;28;20038;-89
2020/12/14 02:26:17;;;;;;;6.03;1.83;;;7.80;73.40;;;;;;5011286;28;20076;-89
2020/12/14 02:28:43;;;;;;;6.53;1.67;;;7.80;73.40;;;;;;5011024;28;20030;-89
2020/12/14 02:31:09;;;;;;;7.80;1.83;;;7.80;73.60;;;;;;4993377;28;20475;-89
2020/12/14 02:33:34;;;;;;;3.63;1.50;;;7.90;73.50;;;;;;4993254;28;20045;-89
2020/12/14 02:36:00;;;;;;;5.67;1.33;;;7.90;73.60;;;;;;4993491;28;20029;-89
2020/12/14 02:38:25;;;;;;;6.83;1.67;;;7.80;73.50;;;;;;5010985;28;20412;-89
2020/12/14 02:40:51;;;;;;;6.57;1.83;;;7.90;73.70;;;;;;4993352;28;20106;-89
2020/12/14 02:43:17;;;;;;;6.37;1.80;;;7.80;73.50;;;;;;4993346;28;20087;-89
2020/12/14 02:45:42;;;;;;;4.80;1.60;;;7.80;73.30;;;;;;5011392;28;20030;-89
2020/12/14 02:48:11;;;;;;;6.83;1.90;;;7.90;73.70;;;;;;4993105;28;20374;-89
2020/12/14 02:50:38;;;;;;;6.00;1.90;;;7.80;73.50;;;;;;5010858;28;20025;-89
2020/12/14 02:53:06;;;;;;;5.23;1.70;;;7.80;73.50;;;;;;4992935;28;20057;-89
2020/12/14 02:55:32;;;;;;;3.92;1.45;;;7.80;73.70;;;;;;4993420;28;20348;-89
2020/12/14 02:57:58;;;;;;;5.90;1.80;;;7.80;73.60;;;;;;4993068;28;20040;-89
2020/12/14 03:00:23;;;;;;;4.77;1.67;;;7.80;73.70;;;;;;4992757;28;20022;-89
2020/12/14 03:02:49;;;;;;;5.93;1.53;;;7.80;73.70;;;;;;4992798;28;20113;-88
2020/12/14 03:05:14;;;;;;;6.80;1.77;;;7.80;73.80;;;;;;5010825;28;20046;-88
2020/12/14 03:07:41;;;;;;;7.27;1.63;;;7.80;73.70;;;;;;5010658;28;20092;-87
2020/12/14 03:10:07;;;;;;;4.63;1.67;;;7.90;73.60;;;;;;5010558;28;20029;-87
2020/12/14 03:12:33;;;;;;;6.33;1.63;;;7.80;73.70;;;;;;5010344;28;20394;-87
2020/12/14 03:14:59;;;;;;;5.57;1.67;;;7.80;73.80;;;;;;5013520;28;20107;-87
2020/12/14 03:17:26;;;;;;;6.23;1.47;;;7.80;74.00;;;;;;4996875;28;20048;-87
2020/12/14 03:19:51;;;;;;;6.87;2.27;;;7.80;74.00;;;;;;4996879;28;20022;-87
2020/12/14 03:22:17;;;;;;;4.07;1.50;;;7.80;74.10;;;;;;4996809;28;20026;-87
2020/12/14 03:24:43;;;;;;;4.80;1.63;;;7.80;74.20;;;;;;4996925;28;20079;-86
2020/12/14 03:27:08;;;;;;;7.37;1.47;;;7.90;74.40;;;;;;4997002;28;20065;-85
2020/12/14 03:29:34;;;;;;;4.90;1.50;;;7.80;74.30;;;;;;4996475;28;20034;-86
2020/12/14 03:31:59;;;;;;;5.53;1.67;;;7.90;75.30;;;;;;5014368;28;20086;-85
2020/12/14 03:34:25;;;;;;;7.10;1.53;;;7.80;74.50;;;;;;4995522;28;20030;-85
2020/12/14 03:36:51;;;;;;;6.17;1.60;;;7.80;74.80;;;;;;4996156;28;20091;-88
2020/12/14 03:39:16;;;;;;;5.90;1.60;;;7.70;75.20;;;;;;4996301;28;20394;-88
2020/12/14 03:41:42;;;;;;;4.43;1.70;;;7.80;75.20;;;;;;4996598;28;20026;-88
2020/12/14 03:44:07;;;;;;;5.00;1.63;;;7.80;75.30;;;;;;4996658;28;20539;-86
2020/12/14 03:46:35;;;;;;;5.73;1.53;;;7.90;75.50;;;;;;4996851;28;20147;-86
2020/12/14 03:49:01;;;;;;;6.63;1.50;;;7.80;75.60;;;;;;4996600;28;20441;-87
2020/12/14 03:51:27;;;;;;;3.53;1.20;;;7.80;75.70;;;;;;4996594;28;20113;-86
2020/12/14 03:53:53;;;;;;;4.07;1.30;;;7.80;75.70;;;;;;5014171;28;20053;-89
2020/12/14 03:56:22;;;;;;;6.23;1.40;;;7.90;75.80;;;;;;4996423;28;20142;-85
2020/12/14 03:58:48;;;;;;;5.68;1.90;;;7.90;75.90;;;;;;5014043;28;20091;-87
2020/12/14 04:01:21;;;;;;;3.50;1.50;;;7.90;76.10;;;;;;4996394;28;20030;-85
2020/12/14 04:03:48;;;;;;;4.37;1.93;;;7.90;76.00;;;;;;5014157;28;20029;-85
2020/12/14 04:06:25;;;;;;;6.97;2.47;;;7.90;76.10;;;;;;4996373;28;20382;-85
2020/12/14 04:08:52;;;;;;;4.83;1.73;;;7.90;76.10;;;;;;4996084;28;20433;-85
2020/12/14 04:11:18;;;;;;;4.47;1.40;;;7.90;76.20;;;;;;5017376;28;20030;-85
2020/12/14 04:13:46;;;;;;;4.27;1.63;;;7.90;76.20;;;;;;5017987;28;20049;-85
2020/12/14 04:16:12;;;;;;;6.50;1.23;;;7.90;76.20;;;;;;5000775;28;20026;-83
2020/12/14 04:18:38;;;;;;;6.07;1.80;;;7.90;76.00;;;;;;4998948;28;20072;-89
2020/12/14 04:21:04;;;;;;;4.83;1.63;;;7.90;76.70;;;;;;4996242;28;20099;-88
2020/12/14 04:23:30;;;;;;;4.73;1.40;;;7.90;76.10;;;;;;5013333;28;20037;-87
2020/12/14 04:25:56;;;;;;;4.40;1.40;;;8.00;75.90;;;;;;4994699;28;20498;-89
2020/12/14 04:28:22;;;;;;;8.10;1.73;;;7.90;75.80;;;;;;4995770;28;20112;-89
2020/12/14 04:30:48;;;;;;;7.37;1.50;;;7.90;75.90;;;;;;5014339;28;20072;-88
2020/12/14 04:33:13;;;;;;;5.03;1.60;;;7.90;76.10;;;;;;5014609;28;20049;-88
2020/12/14 04:35:39;;;;;;;4.67;1.57;;;7.90;76.20;;;;;;4995895;28;20642;-85
2020/12/14 04:38:05;;;;;;;6.40;1.87;;;7.90;76.20;;;;;;4995992;28;20029;-87
2020/12/14 04:40:30;;;;;;;4.70;1.60;;;8.00;76.20;;;;;;5013191;28;20022;-86
2020/12/14 04:42:58;;;;;;;5.50;1.50;;;7.90;76.00;;;;;;5013050;28;20423;-86
2020/12/14 04:45:28;;;;;;;4.77;1.73;;;7.90;76.20;;;;;;5013254;28;20025;-87
2020/12/14 04:47:55;;;;;;;4.28;1.60;;;7.90;76.40;;;;;;5012784;28;20030;-86
2020/12/14 04:50:23;;;;;;;7.67;1.90;;;7.90;76.40;;;;;;5012522;28;20091;-87
2020/12/14 04:52:49;;;;;;;6.77;1.53;;;7.90;76.60;;;;;;4994733;28;20076;-86
2020/12/14 04:55:19;;;;;;;3.80;1.37;;;7.90;76.50;;;;;;4995396;28;20022;-86
2020/12/14 04:57:46;;;;;;;4.70;1.40;;;7.90;76.70;;;;;;5000394;28;20452;-86
2020/12/14 05:00:11;;;;;;;5.10;1.40;;;7.90;76.80;;;;;;5014420;28;20025;-87
2020/12/14 05:02:37;;;;;;;3.30;1.40;;;7.90;77.00;;;;;;5014430;28;20036;-85
2020/12/14 05:05:03;;;;;;;4.37;1.30;;;7.90;77.20;;;;;;5032568;28;20034;-85
2020/12/14 05:07:43;;;;;;;5.43;1.43;;;7.90;77.20;;;;;;5014487;28;20017;-85
2020/12/14 05:10:09;;;;;;;;;;;7.90;77.20;;;;;;5032928;28;20477;-86
2020/12/14 05:12:42;;;;;;;5.57;1.57;;;7.90;77.40;;;;;;5032394;28;19912;-85
2020/12/14 05:15:39;;;;;;;3.17;1.37;;;7.90;77.60;;;;;;5014607;28;20576;-85
2020/12/14 05:18:13;;;;;;;2.50;1.20;;;7.90;77.70;;;;;;4972615;28;20049;-85
2020/12/14 05:20:43;;;;;;;5.90;1.57;;;7.90;77.70;;;;;;4995185;28;20158;-84
2020/12/14 05:23:10;;;;;;;6.07;1.60;;;7.90;78.10;;;;;;4994892;28;20064;-86
2020/12/14 05:25:37;;;;;;;3.93;1.50;;;7.90;78.00;;;;;;5012718;28;20025;-86
2020/12/14 05:28:14;;;;;;;6.00;1.77;;;7.90;78.20;;;;;;4994845;28;20343;-85
2020/12/14 05:30:41;;;;;;;3.47;1.83;;;7.90;78.20;;;;;;4994931;28;20034;-86
2020/12/14 05:33:08;;;;;;;3.40;1.23;;;7.90;78.40;;;;;;4994648;28;20080;-86
2020/12/14 05:35:36;;;;;;;4.97;1.37;;;7.90;78.40;;;;;;4994915;28;20117;-88
2020/12/14 05:38:31;;;;;;;3.27;1.20;;;8.00;78.80;;;;;;4994457;28;20033;-85
2020/12/14 05:41:03;;;;;;;5.33;1.87;;;7.90;79.00;;;;;;4993017;28;20078;-87
2020/12/14 05:43:33;;;;;;;3.37;1.37;;;8.00;78.90;;;;;;4994626;28;20435;-86
2020/12/14 05:46:19;;;;;;;5.40;1.77;;;8.00;79.00;;;;;;4994650;28;20040;-87
2020/12/14 05:48:45;;;;;;;4.63;1.73;;;8.00;79.30;;;;;;4994111;28;20038;-84
2020/12/14 05:51:13;;;;;;;6.47;1.20;;;8.00;79.40;;;;;;5012210;28;20419;-86
2020/12/14 05:53:41;;;;;;;5.33;1.20;;;7.90;79.60;;;;;;4994555;28;20030;-86
2020/12/14 05:56:08;;;;;;;5.97;1.33;;;8.00;79.80;;;;;;4994599;28;20022;-87
2020/12/14 05:58:36;;;;;;;3.63;1.70;;;8.00;79.90;;;;;;4994537;28;20022;-85
2020/12/14 06:01:04;;;;;;;3.90;1.40;;;8.00;80.00;;;;;;4993735;28;20080;-87
2020/12/14 06:03:30;;;;;;;4.00;1.17;;;8.00;80.00;;;;;;4994291;28;20022;-87
2020/12/14 06:06:03;;;;;;;4.40;1.30;;;8.00;80.10;;;;;;4995228;28;20156;-84
2020/12/14 06:08:47;;;;;;;5.33;1.80;;;8.10;80.40;;;;;;4994522;28;20062;-85
2020/12/14 06:11:17;;;;;;;5.10;1.30;;;8.00;80.50;;;;;;4994153;28;20471;-87
2020/12/14 06:13:50;;;;;;;3.43;1.30;;;8.10;80.50;;;;;;4993916;28;20022;-87
2020/12/14 06:16:20;;;;;;;3.03;1.40;;;8.10;80.70;;;;;;4994143;28;20026;-87
2020/12/14 06:18:47;;;;;;;6.13;1.80;;;8.10;80.80;;;;;;5011548;28;20527;-86
2020/12/14 06:21:20;;;;;;;5.93;1.90;;;8.10;80.80;;;;;;4993551;28;20022;-86
2020/12/14 06:23:48;;;;;;;6.07;1.47;;;8.00;81.10;;;;;;4993577;28;20025;-89
2020/12/14 06:26:15;;;;;;;5.43;1.80;;;8.00;81.20;;;;;;4993856;28;20041;-89
2020/12/14 06:28:41;;;;;;;3.37;1.60;;;8.10;81.30;;;;;;5011375;28;20030;-88
2020/12/14 06:31:07;;;;;;;3.60;1.40;;;8.10;81.30;;;;;;4993487;28;20137;-90
2020/12/14 06:33:41;;;;;;;3.33;1.30;;;8.10;81.30;;;;;;4993506;28;20059;-89
2020/12/14 06:36:27;;;;;;;6.70;1.50;;;8.10;81.50;;;;;;4984626;28;20169;-89
2020/12/14 06:38:53;;;;;;;3.73;1.47;;;8.10;81.60;;;;;;5012876;28;20098;-89
2020/12/14 06:41:26;;;;;;;5.67;1.57;;;8.10;81.60;;;;;;4993821;28;20090;-89
2020/12/14 06:44:06;;;;;;;4.60;1.70;;;8.10;81.60;;;;;;4993906;28;20026;-88
2020/12/14 06:46:33;;;;;;;3.53;1.30;;;8.10;81.80;;;;;;5011926;28;20066;-87
2020/12/14 06:49:00;;;;;;;3.03;1.30;;;8.10;81.80;;;;;;5010230;28;20033;-88
2020/12/14 06:51:45;;;;;;;3.57;1.20;;;8.20;82.10;;;;;;4994242;28;20069;-89
2020/12/14 06:54:51;;;;;;;4.60;1.77;;;8.10;82.20;;;;;;4994936;28;20022;-91
2020/12/14 06:57:17;;;;;;;6.63;1.90;;;8.10;82.50;;;;;;4993894;28;20029;-83
2020/12/14 06:59:55;;;;;;;4.87;1.40;;;8.10;82.70;;;;;;4994997;28;20026;-86
2020/12/14 07:02:37;;;;;;;8.77;2.00;;;8.10;82.90;;;;;;4994669;28;20106;-87
2020/12/14 07:05:04;;;;;;;3.90;1.80;;;8.10;85.30;;;;;;5010641;28;20030;-88
2020/12/14 07:07:38;;;;;;;7.57;1.90;;;8.20;85.10;;;;;;4993072;28;20121;-89
2020/12/14 07:10:14;;;;;;;5.97;1.90;;;8.20;86.30;;;;;;4993359;28;20030;-87
2020/12/14 07:12:44;;;;;;;4.57;1.87;;;8.20;87.20;;;;;;5010741;28;20045;-88
2020/12/14 07:15:26;;;;;;;5.90;1.77;;;8.70;90.60;;;;;;4993675;28;20022;-88
2020/12/14 07:18:03;;;;;;;4.73;1.57;;;8.90;85.80;;;;;;4993256;28;20032;-91
2020/12/14 07:20:28;;;;;;;4.60;1.47;;;8.80;83.10;;;;;;5010774;28;20072;-89
2020/12/14 07:23:07;;;;;;;4.53;1.90;;;8.60;83.90;;;;;;4992341;28;20049;-88
2020/12/14 07:25:33;;;;;;;6.33;2.57;;;8.40;84.90;;;;;;4993604;28;20424;-86
2020/12/14 07:27:59;;;;;;;5.63;2.10;;;8.30;85.50;;;;;;4994063;28;20022;-88
2020/12/14 07:30:25;;;;;;;4.93;1.90;;;8.30;86.50;;;;;;5011584;28;20045;-87
2020/12/14 07:32:51;;;;;;;4.43;1.70;;;8.30;87.60;;;;;;5010522;28;20459;-86
2020/12/14 07:35:16;;;;;;;4.43;1.70;;;8.20;88.10;;;;;;5010569;28;20060;-88
2020/12/14 07:37:42;;;;;;;4.43;1.70;;;8.20;88.40;;;;;;4992547;28;20030;-88
2020/12/14 07:40:10;;;;;;;4.80;1.90;;;8.20;89.20;;;;;;4993033;28;20048;-81
2020/12/14 07:42:37;;;;;;;5.87;1.70;;;8.10;90.00;;;;;;5012347;28;20033;-86
2020/12/14 07:45:25;;;;;;;5.60;1.90;;;8.00;90.30;;;;;;4993246;28;20501;-84
2020/12/14 07:47:52;;;;;;;5.97;2.07;;;8.00;90.80;;;;;;4992963;28;20474;-83
2020/12/14 07:50:23;;;;;;;7.60;2.03;;;8.00;90.70;;;;;;4992823;28;20463;-83
2020/12/14 07:52:50;;;;;;;7.03;2.20;;;7.90;90.60;;;;;;4992482;28;20026;-84
2020/12/14 07:55:17;;;;;;;8.70;2.37;;;7.90;90.80;;;;;;4993053;28;20482;-84
2020/12/14 07:57:45;;;;;;;5.00;1.87;;;7.90;91.20;;;;;;5010272;28;20102;-86
2020/12/14 08:00:12;;;;;;;8.43;1.90;;;7.80;91.30;;;;;;4993287;28;20029;-86
2020/12/14 08:02:39;;;;;;;5.20;2.20;;;7.80;91.80;;;;;;5013796;28;20014;-84
2020/12/14 08:05:13;;;;;;;5.10;1.70;;;7.90;91.90;;;;;;4996749;28;20399;-84
2020/12/14 08:08:03;;;;;;;3.57;1.70;;;7.90;91.60;;;;;;4996106;28;20398;-89
2020/12/14 08:10:33;;;;;;;4.97;1.80;;;7.90;91.60;;;;;;4997293;28;20096;-87
2020/12/14 08:16:04;;;;;;;4.43;2.00;;;7.80;91.70;;;;;;5011047;28;20048;-88
2020/12/14 08:18:30;;;;;;;4.33;1.90;;;7.80;91.90;;;;;;5013424;28;20402;-88
2020/12/14 08:21:01;;;;;;;3.97;1.60;;;7.80;92.20;;;;;;5013595;28;20030;-88
2020/12/14 08:23:31;;;;;;;4.20;1.60;;;7.70;92.60;;;;;;4996152;28;20065;-87
2020/12/14 08:25:58;;;;;;;4.47;1.67;;;7.70;92.70;;;;;;4996330;28;20581;-88
2020/12/14 08:28:31;;;;;;;5.17;1.87;;;7.80;92.80;;;;;;4995882;28;20022;-84
2020/12/14 08:30:57;;;;;;;6.83;2.10;;;7.70;92.80;;;;;;4996074;28;20387;-85
2020/12/14 08:33:23;;;;;;;4.83;2.00;;;7.70;93.10;;;;;;4995666;28;20022;-88
2020/12/14 08:35:51;;;;;;;7.23;2.10;;;7.80;93.80;;;;;;4995786;28;20037;-86
2020/12/14 08:38:23;;;;;;;7.38;2.40;;;7.80;93.80;;;;;;4997613;28;20034;-87
2020/12/14 08:40:50;;;;;;;7.13;2.37;;;8.00;94.70;;;;;;4997582;28;20030;-87
2020/12/14 08:43:17;;;;;;;7.57;2.20;;;8.00;94.60;;;;;;4996743;28;20482;-90
2020/12/14 08:46:31;;;;;;;3.57;1.77;;;8.00;94.30;;;;;;5014483;28;20033;-89
2020/12/14 08:48:59;;;;;;;7.37;2.43;;;8.00;93.60;;;;;;4996759;28;20022;-88
2020/12/14 08:51:35;;;;;;;6.27;2.10;;;8.00;93.40;;;;;;4997439;28;20030;-91
2020/12/14 08:54:14;;;;;;;5.47;1.90;;;8.10;93.70;;;;;;4997073;28;20491;-87
2020/12/14 08:56:41;;;;;;;6.65;1.92;;;8.10;93.10;;;;;;4996737;28;20130;-83
2020/12/14 08:59:13;;;;;;;4.80;1.90;;;8.10;92.70;;;;;;4995601;28;20041;-87
2020/12/14 09:01:39;;;;;;;8.77;2.23;;;7.90;92.50;;;;;;4993527;28;20521;-87
2020/12/14 09:04:05;;;;;;;7.10;2.17;;;7.90;92.80;;;;;;4992851;28;20116;-87
2020/12/14 09:06:34;;;;;;;4.87;2.00;;;7.90;92.70;;;;;;4992710;28;20022;-87
2020/12/14 09:09:12;;;;;;;7.13;2.10;;;7.90;92.80;;;;;;4993106;28;20064;-86
2020/12/14 09:11:46;;;;;;;5.40;2.20;;;7.90;92.70;;;;;;5010785;28;20026;-87
2020/12/14 09:14:27;;;;;;;4.53;2.10;;;7.80;93.00;;;;;;4994474;28;20037;-87
2020/12/14 09:16:55;;;;;;;6.60;2.03;;;7.90;93.20;;;;;;4995857;28;20557;-87
2020/12/14 09:19:26;;;;;;;6.30;2.47;;;7.90;93.40;;;;;;4996298;28;20029;-87
2020/12/14 09:21:52;;;;;;;6.13;2.10;;;7.90;93.00;;;;;;4996708;28;20032;-87
2020/12/14 09:24:21;;;;;;;9.23;2.23;;;7.90;93.10;;;;;;4996728;28;20117;-86
2020/12/14 09:26:48;;;;;;;7.20;2.20;;;7.90;92.90;;;;;;4996571;28;20029;-87
2020/12/14 09:29:17;;;;;;;4.60;2.23;;;7.90;93.10;;;;;;4996527;28;20038;-87
2020/12/14 09:31:54;;;;;;;5.45;2.08;;;7.90;93.00;;;;;;5014242;28;20495;-87
2020/12/14 09:34:20;;;;;;;5.83;2.50;;;7.90;93.10;;;;;;4996004;28;20030;-87
2020/12/14 09:36:49;;;;;;;5.20;2.10;;;7.90;93.30;;;;;;5013682;28;20029;-87
2020/12/14 09:39:15;;;;;;;4.63;2.30;;;7.90;93.10;;;;;;4996184;28;20022;-86
2020/12/14 09:41:41;;;;;;;5.40;2.13;;;7.90;93.20;;;;;;5013721;28;20026;-87
2020/12/14 09:44:07;;;;;;;7.53;2.30;;;8.00;93.20;;;;;;4996040;28;20036;-87
2020/12/14 09:46:33;;;;;;;8.30;2.67;;;8.00;93.20;;;;;;4995999;28;20022;-87
2020/12/14 09:49:00;;;;;;;6.27;2.50;;;8.00;93.20;;;;;;4995744;28;20111;-87
2020/12/14 09:51:27;;;;;;;6.67;2.90;;;8.00;93.40;;;;;;4996103;28;20029;-87
2020/12/14 09:53:53;;;;;;;5.47;2.27;;;8.00;93.50;;;;;;4996018;28;20030;-87
2020/12/14 09:56:19;;;;;;;6.93;2.63;;;8.00;93.70;;;;;;5013394;28;20120;-87
2020/12/14 09:58:46;;;;;;;5.00;2.43;;;8.00;93.80;;;;;;5013680;28;20483;-87
2020/12/14 10:01:12;;;;;;;5.33;2.43;;;8.00;93.70;;;;;;4995688;28;20391;-87
2020/12/14 10:03:37;;;;;;;8.27;3.03;;;8.00;93.90;;;;;;4995558;28;20030;-87
2020/12/14 10:06:03;;;;;;;6.77;3.27;;;8.00;93.90;;;;;;5013220;28;20022;-87
2020/12/14 10:08:29;;;;;;;6.97;3.10;;;8.00;93.90;;;;;;4995821;28;20442;-87
2020/12/14 10:10:56;;;;;;;7.53;2.93;;;8.00;94.20;;;;;;4995453;28;20430;-87
2020/12/14 10:13:25;;;;;;;8.73;2.70;;;8.00;94.20;;;;;;4995607;28;20030;-87
2020/12/14 10:15:52;;;;;;;8.43;2.65;;;8.10;94.20;;;;;;5013718;28;20112;-86
2020/12/14 10:18:18;;;;;;;8.87;3.40;;;8.10;94.10;;;;;;4996062;28;20490;-84
2020/12/14 10:20:44;;;;;;;7.30;3.10;;;8.10;94.00;;;;;;5013346;28;20030;-87
2020/12/14 10:23:11;;;;;;;7.90;2.63;;;8.10;94.00;;;;;;4996083;28;20030;-84
2020/12/14 10:25:37;;;;;;;6.20;2.30;;;8.10;93.90;;;;;;4995593;28;20030;-84
2020/12/14 10:28:05;;;;;;;6.23;2.70;;;8.10;93.70;;;;;;5013825;28;20135;-84
2020/12/14 10:30:32;;;;;;;7.85;2.72;;;8.10;93.70;;;;;;4996535;28;20030;-84
2020/12/14 10:32:58;;;;;;;6.23;2.60;;;8.10;93.80;;;;;;4996667;28;20033;-85
2020/12/14 10:35:24;;;;;;;7.90;2.83;;;8.10;93.60;;;;;;4995436;28;20395;-85
2020/12/14 10:38:18;;;;;;;6.77;3.10;;;8.10;93.70;;;;;;4995084;28;20026;-85
2020/12/14 10:41:44;;;;;;;6.73;2.80;;;8.10;93.60;;;;;;4994208;28;20025;-85
2020/12/14 10:44:50;;;;;;;6.90;2.47;;;8.10;93.60;;;;;;4978107;28;20487;-85
2020/12/14 10:47:15;;;;;;;6.60;2.77;;;8.10;93.60;;;;;;4995123;28;20364;-85
2020/12/14 10:49:42;;;;;;;8.50;3.00;;;8.10;93.80;;;;;;4995053;28;20106;-85
2020/12/14 10:52:23;;;;;;;6.73;2.80;;;8.10;93.80;;;;;;5011723;28;20378;-87
2020/12/14 10:54:51;;;;;;;7.00;2.70;;;8.10;94.10;;;;;;4994586;28;20030;-84
2020/12/14 10:57:30;;;;;;;8.87;2.83;;;8.10;94.10;;;;;;4978951;28;20037;-84
2020/12/14 10:59:59;;;;;;;6.60;2.70;;;8.10;94.10;;;;;;4991328;28;20112;-85
2020/12/14 11:02:24;;;;;;;9.37;3.00;;;8.10;94.20;;;;;;4995362;28;20018;-85
2020/12/14 11:04:51;;;;;;;7.37;2.73;;;8.20;94.20;;;;;;5012534;28;20375;-85
2020/12/14 11:07:17;;;;;;;7.87;2.70;;;8.10;94.20;;;;;;4994878;28;20026;-85
2020/12/14 11:09:42;;;;;;;7.27;3.20;;;8.10;94.40;;;;;;4994928;28;20032;-85
2020/12/14 11:12:08;;;;;;;6.87;3.00;;;8.20;94.20;;;;;;5013005;28;20494;-85
2020/12/14 11:14:46;;;;;;;8.90;3.20;;;8.20;94.20;;;;;;5012867;28;20440;-85
2020/12/14 11:17:16;;;;;;;5.50;2.70;;;8.20;94.20;;;;;;4996242;28;20037;-85
2020/12/14 11:19:42;;;;;;;7.80;3.20;;;8.30;94.10;;;;;;4998135;28;20104;-85
2020/12/14 11:22:08;;;;;;;7.87;2.90;;;8.30;93.90;;;;;;4998700;28;20021;-85
2020/12/14 11:24:33;;;;;;;8.00;3.10;;;8.30;93.90;;;;;;5025496;28;20034;-85
2020/12/14 11:27:07;;;;;;;7.30;2.70;;;8.30;94.00;;;;;;5007121;28;20026;-85
2020/12/14 11:29:33;;;;;;;7.50;2.77;;;8.30;93.90;;;;;;5005271;28;20249;-85
2020/12/14 11:32:02;;;;;;;7.10;3.07;;;8.40;93.90;;;;;;5025431;28;20030;-85
2020/12/14 11:34:28;;;;;;;6.93;3.08;;;8.40;93.90;;;;;;5003184;28;20041;-85
2020/12/14 11:37:05;;;;;;;7.27;2.70;;;8.40;93.80;;;;;;5011062;28;20029;-85
2020/12/14 11:39:30;;;;;;;5.23;2.80;;;8.50;93.70;;;;;;5005001;28;20175;-85
2020/12/14 11:41:56;;;;;;;7.23;2.83;;;8.50;93.70;;;;;;4998675;28;20549;-85
2020/12/14 11:44:22;;;;;;;5.43;2.43;;;8.50;93.60;;;;;;4998477;28;20029;-85
2020/12/14 11:46:51;;;;;;;6.77;2.67;;;8.60;93.60;;;;;;4999059;28;20484;-85
2020/12/14 11:49:18;;;;;;;5.17;2.67;;;8.70;93.60;;;;;;4998258;28;20533;-85
2020/12/14 11:51:44;;;;;;;6.60;2.80;;;8.70;93.40;;;;;;4998273;28;20492;-86
2020/12/14 11:54:19;;;;;;;6.20;2.40;;;8.70;93.70;;;;;;4998769;28;20061;-85
2020/12/14 11:56:53;;;;;;;4.87;2.57;;;8.70;93.40;;;;;;4998680;28;20026;-85
2020/12/14 11:59:45;;;;;;;5.97;2.80;;;8.70;93.30;;;;;;4997957;28;20394;-85
2020/12/14 12:06:13;;;;;;;5.13;2.20;;;8.80;93.20;;;;;;5015629;28;20018;-85
2020/12/14 12:08:39;;;;;;;7.20;2.87;;;8.80;93.00;;;;;;5029055;23;20650;-85
2020/12/14 12:11:04;;;;;;;5.37;2.50;;;8.80;93.00;;;;;;5039077;28;20021;-85
2020/12/14 12:13:32;;;;;;;10.60;2.53;;;8.80;92.90;;;;;;5021792;28;20034;-85
2020/12/14 12:15:58;;;;;;;5.33;2.03;;;8.90;92.90;;;;;;5022853;28;20037;-85
2020/12/14 12:18:24;;;;;;;6.90;2.50;;;8.90;92.80;;;;;;5040148;28;20029;-85
2020/12/14 12:20:49;;;;;;;6.50;2.50;;;8.90;92.70;;;;;;5039468;28;20025;-85
2020/12/14 12:23:15;;;;;;;6.03;2.53;;;8.90;92.80;;;;;;5041121;28;20038;-85
2020/12/14 12:25:41;;;;;;;4.77;2.20;;;8.90;92.70;;;;;;5042212;28;20025;-84
2020/12/14 12:28:06;;;;;;;6.50;2.43;;;8.90;92.80;;;;;;5023379;28;20033;-85
2020/12/14 12:30:34;;;;;;;6.57;2.40;;;9.00;92.60;;;;;;5039367;28;20038;-85
2020/12/14 12:33:01;;;;;;;5.03;2.27;;;9.00;92.40;;;;;;5020803;28;20052;-85
2020/12/14 12:35:27;;;;;;;6.87;2.70;;;9.00;92.30;;;;;;5038839;28;20108;-85
2020/12/14 12:37:53;;;;;;;6.73;2.17;;;9.10;92.10;;;;;;5038702;28;20072;-84
2020/12/14 12:40:18;;;;;;;7.50;2.50;;;9.10;92.10;;;;;;5021628;28;20063;-85
2020/12/14 12:42:44;;;;;;;5.80;2.10;;;9.10;92.10;;;;;;5021567;28;20061;-85
2020/12/14 12:45:09;;;;;;;5.87;2.13;;;9.10;91.80;;;;;;5038950;28;20033;-85
2020/12/14 12:47:35;;;;;;;6.27;1.97;;;9.20;91.70;;;;;;5037035;28;20462;-85
2020/12/14 12:50:00;;;;;;;6.57;2.20;;;9.20;91.80;;;;;;5019620;28;20029;-84
2020/12/14 12:52:26;;;;;;;5.97;2.20;;;9.20;91.60;;;;;;5038029;28;20064;-84
2020/12/14 12:54:52;;;;;;;5.03;2.13;;;9.30;91.50;;;;;;5020165;28;20029;-85
2020/12/14 12:57:17;;;;;;;6.63;2.43;;;9.30;91.60;;;;;;5038343;28;20072;-85
2020/12/14 12:59:43;;;;;;;5.43;2.20;;;9.30;91.50;;;;;;5037083;28;20071;-84
2020/12/14 13:02:08;;;;;;;6.57;2.13;;;9.30;91.40;;;;;;5019871;28;20112;-85
2020/12/14 13:04:38;;;;;;;;;;;9.40;91.30;;;;;;5020419;28;20052;-85
2020/12/14 13:07:05;;;;;;;5.27;2.20;;;9.40;90.90;;;;;;5037514;28;19996;-85
2020/12/14 13:09:30;;;;;;;5.83;2.00;;;9.40;91.30;;;;;;5018050;28;20071;-85
2020/12/14 13:11:56;;;;;;;7.03;2.47;;;9.40;91.00;;;;;;5037184;28;20033;-84
2020/12/14 13:14:21;;;;;;;6.50;2.27;;;9.50;90.90;;;;;;5018492;28;20068;-84